sensor_id;sensor_type;location;lat;lon;timestamp;P1;durP1;ratioP1;P2;durP2;ratioP2
8857;SDS011;4465;50.904;4.696;2024-03-07T00:00:07;29.08;;;11.10;;
8857;SDS011;4465;50.904;4.696;2024-03-07T00:02:45;28.40;;;11.55;;
8857;SDS011;4465;50.904;4.696;2024-03-07T00:05:18;24.77;;;11.02;;
8857;SDS011;4465;50.904;4.696;2024-03-07T00:07:45;28.55;;;11.60;;
8857;SDS011;4465;50.904;4.696;2024-03-07T00:10:13;25.02;;;11.20;;
8857;SDS011;4465;50.904;4.696;2024-03-07T00:12:45;25.98;;;11.30;;
8857;SDS011;4465;50.904;4.696;2024-03-07T00:15:14;25.88;;;10.50;;
8857;SDS011;4465;50.904;4.696;2024-03-07T00:17:43;22.92;;;9.73;;
8857;SDS011;4465;50.904;4.696;2024-03-07T00:20:09;31.85;;;12.43;;
8857;SDS011;4465;50.904;4.696;2024-03-07T00:22:39;29.70;;;11.30;;
8857;SDS011;4465;50.904;4.696;2024-03-07T00:25:06;33.35;;;11.93;;
8857;SDS011;4465;50.904;4.696;2024-03-07T00:27:36;28.35;;;12.60;;
8857;SDS011;4465;50.904;4.696;2024-03-07T00:30:06;30.80;;;13.18;;
8857;SDS011;4465;50.904;4.696;2024-03-07T00:32:38;32.67;;;13.40;;
8857;SDS011;4465;50.904;4.696;2024-03-07T00:35:08;35.88;;;13.43;;
8857;SDS011;4465;50.904;4.696;2024-03-07T00:37:34;36.17;;;13.43;;
8857;SDS011;4465;50.904;4.696;2024-03-07T00:40:01;31.57;;;13.17;;
8857;SDS011;4465;50.904;4.696;2024-03-07T00:42:30;28.10;;;12.15;;
8857;SDS011;4465;50.904;4.696;2024-03-07T00:44:56;33.60;;;13.10;;
8857;SDS011;4465;50.904;4.696;2024-03-07T00:47:22;40.03;;;14.82;;
8857;SDS011;4465;50.904;4.696;2024-03-07T00:49:52;31.75;;;13.13;;
8857;SDS011;4465;50.904;4.696;2024-03-07T00:52:21;34.22;;;13.18;;
8857;SDS011;4465;50.904;4.696;2024-03-07T00:54:46;38.25;;;13.60;;
8857;SDS011;4465;50.904;4.696;2024-03-07T00:57:15;30.45;;;13.43;;
8857;SDS011;4465;50.904;4.696;2024-03-07T00:59:41;33.83;;;13.35;;
8857;SDS011;4465;50.904;4.696;2024-03-07T01:02:07;36.92;;;13.93;;
8857;SDS011;4465;50.904;4.696;2024-03-07T01:04:35;34.83;;;12.93;;
8857;SDS011;4465;50.904;4.696;2024-03-07T01:07:03;31.77;;;12.85;;
8857;SDS011;4465;50.904;4.696;2024-03-07T01:09:32;34.88;;;14.23;;
8857;SDS011;4465;50.904;4.696;2024-03-07T01:11:58;34.85;;;14.40;;
8857;SDS011;4465;50.904;4.696;2024-03-07T01:14:29;33.53;;;14.20;;
8857;SDS011;4465;50.904;4.696;2024-03-07T01:16:56;38.65;;;15.13;;
8857;SDS011;4465;50.904;4.696;2024-03-07T01:19:22;44.10;;;15.93;;
8857;SDS011;4465;50.904;4.696;2024-03-07T01:21:48;36.90;;;15.25;;
8857;SDS011;4465;50.904;4.696;2024-03-07T01:24:14;42.90;;;16.80;;
8857;SDS011;4465;50.904;4.696;2024-03-07T01:26:48;41.03;;;16.05;;
8857;SDS011;4465;50.904;4.696;2024-03-07T01:29:14;37.60;;;15.63;;
8857;SDS011;4465;50.904;4.696;2024-03-07T01:31:40;47.28;;;15.55;;
8857;SDS011;4465;50.904;4.696;2024-03-07T01:34:06;39.85;;;15.95;;
8857;SDS011;4465;50.904;4.696;2024-03-07T01:36:33;42.40;;;17.52;;
8857;SDS011;4465;50.904;4.696;2024-03-07T01:38:59;44.45;;;17.05;;
8857;SDS011;4465;50.904;4.696;2024-03-07T01:41:24;40.20;;;16.88;;
8857;SDS011;4465;50.904;4.696;2024-03-07T01:43:50;43.35;;;17.30;;
8857;SDS011;4465;50.904;4.696;2024-03-07T01:46:19;45.00;;;17.20;;
8857;SDS011;4465;50.904;4.696;2024-03-07T01:48:45;40.78;;;15.93;;
8857;SDS011;4465;50.904;4.696;2024-03-07T01:51:14;45.47;;;17.25;;
8857;SDS011;4465;50.904;4.696;2024-03-07T01:53:41;48.38;;;16.05;;
8857;SDS011;4465;50.904;4.696;2024-03-07T01:56:07;45.22;;;17.05;;
8857;SDS011;4465;50.904;4.696;2024-03-07T01:58:33;49.05;;;17.80;;
8857;SDS011;4465;50.904;4.696;2024-03-07T02:01:01;51.78;;;18.60;;
8857;SDS011;4465;50.904;4.696;2024-03-07T02:03:27;39.78;;;16.83;;
8857;SDS011;4465;50.904;4.696;2024-03-07T02:05:53;40.80;;;16.00;;
8857;SDS011;4465;50.904;4.696;2024-03-07T02:08:22;46.50;;;17.20;;
8857;SDS011;4465;50.904;4.696;2024-03-07T02:10:48;45.20;;;17.08;;
8857;SDS011;4465;50.904;4.696;2024-03-07T02:13:15;43.00;;;16.63;;
8857;SDS011;4465;50.904;4.696;2024-03-07T02:15:41;50.40;;;18.05;;
8857;SDS011;4465;50.904;4.696;2024-03-07T02:18:10;51.95;;;17.48;;
8857;SDS011;4465;50.904;4.696;2024-03-07T02:20:44;54.60;;;19.63;;
8857;SDS011;4465;50.904;4.696;2024-03-07T02:23:14;49.83;;;20.05;;
8857;SDS011;4465;50.904;4.696;2024-03-07T02:25:42;57.97;;;21.15;;
8857;SDS011;4465;50.904;4.696;2024-03-07T02:28:12;53.58;;;19.27;;
8857;SDS011;4465;50.904;4.696;2024-03-07T02:30:40;53.88;;;20.17;;
8857;SDS011;4465;50.904;4.696;2024-03-07T02:33:06;49.50;;;20.10;;
8857;SDS011;4465;50.904;4.696;2024-03-07T02:35:35;55.50;;;21.83;;
8857;SDS011;4465;50.904;4.696;2024-03-07T02:38:02;49.72;;;20.42;;
8857;SDS011;4465;50.904;4.696;2024-03-07T02:40:31;57.63;;;20.20;;
8857;SDS011;4465;50.904;4.696;2024-03-07T02:42:57;60.00;;;20.93;;
8857;SDS011;4465;50.904;4.696;2024-03-07T02:45:23;57.67;;;20.50;;
8857;SDS011;4465;50.904;4.696;2024-03-07T02:47:49;55.25;;;21.58;;
8857;SDS011;4465;50.904;4.696;2024-03-07T02:50:19;60.90;;;21.95;;
8857;SDS011;4465;50.904;4.696;2024-03-07T02:52:47;61.55;;;22.23;;
8857;SDS011;4465;50.904;4.696;2024-03-07T02:55:13;66.28;;;22.08;;
8857;SDS011;4465;50.904;4.696;2024-03-07T02:57:48;61.00;;;22.42;;
8857;SDS011;4465;50.904;4.696;2024-03-07T03:00:19;66.65;;;23.13;;
8857;SDS011;4465;50.904;4.696;2024-03-07T03:02:48;64.20;;;22.00;;
8857;SDS011;4465;50.904;4.696;2024-03-07T03:05:14;61.88;;;23.05;;
8857;SDS011;4465;50.904;4.696;2024-03-07T03:07:41;74.73;;;25.60;;
8857;SDS011;4465;50.904;4.696;2024-03-07T03:10:10;64.43;;;22.15;;
8857;SDS011;4465;50.904;4.696;2024-03-07T03:12:37;65.80;;;22.33;;
8857;SDS011;4465;50.904;4.696;2024-03-07T03:15:04;69.47;;;23.92;;
8857;SDS011;4465;50.904;4.696;2024-03-07T03:17:35;74.28;;;23.50;;
8857;SDS011;4465;50.904;4.696;2024-03-07T03:20:01;55.25;;;20.98;;
8857;SDS011;4465;50.904;4.696;2024-03-07T03:22:27;59.50;;;21.38;;
8857;SDS011;4465;50.904;4.696;2024-03-07T03:24:52;62.28;;;23.20;;
8857;SDS011;4465;50.904;4.696;2024-03-07T03:27:21;65.53;;;23.83;;
8857;SDS011;4465;50.904;4.696;2024-03-07T03:29:52;61.70;;;21.65;;
8857;SDS011;4465;50.904;4.696;2024-03-07T03:32:18;64.10;;;23.30;;
8857;SDS011;4465;50.904;4.696;2024-03-07T03:34:46;59.42;;;23.27;;
8857;SDS011;4465;50.904;4.696;2024-03-07T03:37:12;59.63;;;22.27;;
8857;SDS011;4465;50.904;4.696;2024-03-07T03:39:40;56.42;;;21.23;;
8857;SDS011;4465;50.904;4.696;2024-03-07T03:42:08;55.75;;;20.95;;
8857;SDS011;4465;50.904;4.696;2024-03-07T03:44:34;62.53;;;22.40;;
8857;SDS011;4465;50.904;4.696;2024-03-07T03:47:00;60.10;;;21.95;;
8857;SDS011;4465;50.904;4.696;2024-03-07T03:49:27;52.83;;;20.52;;
8857;SDS011;4465;50.904;4.696;2024-03-07T03:51:55;57.92;;;21.75;;
8857;SDS011;4465;50.904;4.696;2024-03-07T03:54:21;64.53;;;21.42;;
8857;SDS011;4465;50.904;4.696;2024-03-07T03:56:49;61.10;;;20.08;;
8857;SDS011;4465;50.904;4.696;2024-03-07T03:59:19;55.20;;;20.88;;
8857;SDS011;4465;50.904;4.696;2024-03-07T04:01:47;55.72;;;20.30;;
8857;SDS011;4465;50.904;4.696;2024-03-07T04:04:15;58.30;;;21.73;;
8857;SDS011;4465;50.904;4.696;2024-03-07T04:06:41;54.20;;;20.65;;
8857;SDS011;4465;50.904;4.696;2024-03-07T04:09:07;54.03;;;22.27;;
8857;SDS011;4465;50.904;4.696;2024-03-07T04:11:33;56.83;;;21.63;;
8857;SDS011;4465;50.904;4.696;2024-03-07T04:13:59;61.40;;;20.98;;
8857;SDS011;4465;50.904;4.696;2024-03-07T04:16:27;56.67;;;21.35;;
8857;SDS011;4465;50.904;4.696;2024-03-07T04:18:53;72.20;;;22.35;;
8857;SDS011;4465;50.904;4.696;2024-03-07T04:21:19;62.45;;;22.20;;
8857;SDS011;4465;50.904;4.696;2024-03-07T04:23:47;64.35;;;21.98;;
8857;SDS011;4465;50.904;4.696;2024-03-07T04:26:13;64.78;;;22.83;;
8857;SDS011;4465;50.904;4.696;2024-03-07T04:28:39;58.35;;;20.65;;
8857;SDS011;4465;50.904;4.696;2024-03-07T04:31:05;61.13;;;21.55;;
8857;SDS011;4465;50.904;4.696;2024-03-07T04:33:31;68.80;;;23.17;;
8857;SDS011;4465;50.904;4.696;2024-03-07T04:35:57;65.38;;;22.02;;
8857;SDS011;4465;50.904;4.696;2024-03-07T04:38:26;66.20;;;22.98;;
8857;SDS011;4465;50.904;4.696;2024-03-07T04:40:56;65.60;;;23.73;;
8857;SDS011;4465;50.904;4.696;2024-03-07T04:43:22;64.03;;;22.38;;
8857;SDS011;4465;50.904;4.696;2024-03-07T04:45:48;67.05;;;23.25;;
8857;SDS011;4465;50.904;4.696;2024-03-07T04:48:16;57.42;;;21.85;;
8857;SDS011;4465;50.904;4.696;2024-03-07T04:50:44;66.55;;;22.73;;
8857;SDS011;4465;50.904;4.696;2024-03-07T04:53:12;57.03;;;21.83;;
8857;SDS011;4465;50.904;4.696;2024-03-07T04:55:41;61.50;;;21.40;;
8857;SDS011;4465;50.904;4.696;2024-03-07T04:58:08;57.58;;;20.98;;
8857;SDS011;4465;50.904;4.696;2024-03-07T05:00:36;61.33;;;21.52;;
8857;SDS011;4465;50.904;4.696;2024-03-07T05:03:02;65.07;;;21.67;;
8857;SDS011;4465;50.904;4.696;2024-03-07T05:05:30;54.63;;;21.40;;
8857;SDS011;4465;50.904;4.696;2024-03-07T05:07:56;65.18;;;23.08;;
8857;SDS011;4465;50.904;4.696;2024-03-07T05:10:24;63.55;;;23.05;;
8857;SDS011;4465;50.904;4.696;2024-03-07T05:12:55;72.47;;;25.05;;
8857;SDS011;4465;50.904;4.696;2024-03-07T05:15:24;74.55;;;28.05;;
8857;SDS011;4465;50.904;4.696;2024-03-07T05:17:52;86.63;;;27.88;;
8857;SDS011;4465;50.904;4.696;2024-03-07T05:20:21;98.30;;;30.02;;
8857;SDS011;4465;50.904;4.696;2024-03-07T05:22:47;95.72;;;31.27;;
8857;SDS011;4465;50.904;4.696;2024-03-07T05:25:16;108.28;;;32.22;;
8857;SDS011;4465;50.904;4.696;2024-03-07T05:27:44;105.43;;;31.83;;
8857;SDS011;4465;50.904;4.696;2024-03-07T05:30:13;123.32;;;32.72;;
8857;SDS011;4465;50.904;4.696;2024-03-07T05:32:40;122.50;;;32.92;;
8857;SDS011;4465;50.904;4.696;2024-03-07T05:35:06;97.70;;;32.42;;
8857;SDS011;4465;50.904;4.696;2024-03-07T05:37:35;108.13;;;31.95;;
8857;SDS011;4465;50.904;4.696;2024-03-07T05:40:07;109.72;;;33.38;;
8857;SDS011;4465;50.904;4.696;2024-03-07T05:42:33;112.72;;;32.80;;
8857;SDS011;4465;50.904;4.696;2024-03-07T05:45:02;108.43;;;33.35;;
8857;SDS011;4465;50.904;4.696;2024-03-07T05:47:28;109.85;;;32.65;;
8857;SDS011;4465;50.904;4.696;2024-03-07T05:49:54;101.97;;;31.60;;
8857;SDS011;4465;50.904;4.696;2024-03-07T05:52:19;120.88;;;32.85;;
8857;SDS011;4465;50.904;4.696;2024-03-07T05:54:47;132.95;;;37.05;;
8857;SDS011;4465;50.904;4.696;2024-03-07T05:57:15;135.50;;;36.42;;
8857;SDS011;4465;50.904;4.696;2024-03-07T05:59:41;131.95;;;38.20;;
8857;SDS011;4465;50.904;4.696;2024-03-07T06:02:07;133.95;;;37.85;;
8857;SDS011;4465;50.904;4.696;2024-03-07T06:04:38;111.00;;;37.05;;
8857;SDS011;4465;50.904;4.696;2024-03-07T06:07:04;149.68;;;38.00;;
8857;SDS011;4465;50.904;4.696;2024-03-07T06:09:31;109.07;;;31.47;;
8857;SDS011;4465;50.904;4.696;2024-03-07T06:11:57;92.05;;;29.23;;
8857;SDS011;4465;50.904;4.696;2024-03-07T06:14:23;93.43;;;27.58;;
8857;SDS011;4465;50.904;4.696;2024-03-07T06:16:49;104.57;;;30.67;;
8857;SDS011;4465;50.904;4.696;2024-03-07T06:19:17;89.63;;;28.10;;
8857;SDS011;4465;50.904;4.696;2024-03-07T06:21:45;102.85;;;27.85;;
8857;SDS011;4465;50.904;4.696;2024-03-07T06:24:11;85.47;;;26.45;;
8857;SDS011;4465;50.904;4.696;2024-03-07T06:26:40;97.30;;;28.98;;
8857;SDS011;4465;50.904;4.696;2024-03-07T06:29:09;97.78;;;28.23;;
8857;SDS011;4465;50.904;4.696;2024-03-07T06:31:36;90.85;;;26.73;;
8857;SDS011;4465;50.904;4.696;2024-03-07T06:34:11;87.00;;;26.30;;
8857;SDS011;4465;50.904;4.696;2024-03-07T06:36:42;84.07;;;26.67;;
8857;SDS011;4465;50.904;4.696;2024-03-07T06:39:10;95.47;;;29.05;;
8857;SDS011;4465;50.904;4.696;2024-03-07T06:41:38;92.65;;;27.60;;
8857;SDS011;4465;50.904;4.696;2024-03-07T06:44:05;82.38;;;24.73;;
8857;SDS011;4465;50.904;4.696;2024-03-07T06:46:34;96.00;;;27.73;;
8857;SDS011;4465;50.904;4.696;2024-03-07T06:49:00;92.78;;;26.63;;
8857;SDS011;4465;50.904;4.696;2024-03-07T06:51:27;93.60;;;26.50;;
8857;SDS011;4465;50.904;4.696;2024-03-07T06:53:53;90.78;;;27.95;;
8857;SDS011;4465;50.904;4.696;2024-03-07T06:56:19;91.68;;;25.27;;
8857;SDS011;4465;50.904;4.696;2024-03-07T06:58:47;91.45;;;26.30;;
8857;SDS011;4465;50.904;4.696;2024-03-07T07:01:15;102.88;;;26.27;;
8857;SDS011;4465;50.904;4.696;2024-03-07T07:03:41;86.47;;;25.38;;
8857;SDS011;4465;50.904;4.696;2024-03-07T07:06:10;91.28;;;26.52;;
8857;SDS011;4465;50.904;4.696;2024-03-07T07:08:36;87.93;;;26.40;;
8857;SDS011;4465;50.904;4.696;2024-03-07T07:11:08;90.20;;;26.48;;
8857;SDS011;4465;50.904;4.696;2024-03-07T07:13:34;103.65;;;28.98;;
8857;SDS011;4465;50.904;4.696;2024-03-07T07:16:02;93.72;;;26.83;;
8857;SDS011;4465;50.904;4.696;2024-03-07T07:18:28;100.05;;;26.13;;
8857;SDS011;4465;50.904;4.696;2024-03-07T07:20:54;105.93;;;28.75;;
8857;SDS011;4465;50.904;4.696;2024-03-07T07:23:23;98.90;;;27.38;;
8857;SDS011;4465;50.904;4.696;2024-03-07T07:25:52;102.40;;;27.48;;
8857;SDS011;4465;50.904;4.696;2024-03-07T07:28:18;88.90;;;25.05;;
8857;SDS011;4465;50.904;4.696;2024-03-07T07:30:48;89.28;;;27.88;;
8857;SDS011;4465;50.904;4.696;2024-03-07T07:33:16;99.47;;;28.02;;
8857;SDS011;4465;50.904;4.696;2024-03-07T07:35:43;84.30;;;26.20;;
8857;SDS011;4465;50.904;4.696;2024-03-07T07:38:12;91.32;;;24.70;;
8857;SDS011;4465;50.904;4.696;2024-03-07T07:40:40;90.18;;;25.75;;
8857;SDS011;4465;50.904;4.696;2024-03-07T07:43:06;89.97;;;25.55;;
8857;SDS011;4465;50.904;4.696;2024-03-07T07:45:38;82.07;;;24.92;;
8857;SDS011;4465;50.904;4.696;2024-03-07T07:48:05;89.63;;;24.65;;
8857;SDS011;4465;50.904;4.696;2024-03-07T07:50:33;84.13;;;24.60;;
8857;SDS011;4465;50.904;4.696;2024-03-07T07:52:59;85.40;;;23.90;;
8857;SDS011;4465;50.904;4.696;2024-03-07T07:55:32;85.68;;;24.80;;
8857;SDS011;4465;50.904;4.696;2024-03-07T07:57:59;89.57;;;25.63;;
8857;SDS011;4465;50.904;4.696;2024-03-07T08:00:26;85.28;;;24.73;;
8857;SDS011;4465;50.904;4.696;2024-03-07T08:02:55;87.53;;;25.70;;
8857;SDS011;4465;50.904;4.696;2024-03-07T08:05:27;81.82;;;25.40;;
8857;SDS011;4465;50.904;4.696;2024-03-07T08:07:55;82.88;;;23.08;;
8857;SDS011;4465;50.904;4.696;2024-03-07T08:10:26;92.15;;;25.38;;
8857;SDS011;4465;50.904;4.696;2024-03-07T08:12:56;86.05;;;25.45;;
8857;SDS011;4465;50.904;4.696;2024-03-07T08:15:25;92.43;;;25.42;;
8857;SDS011;4465;50.904;4.696;2024-03-07T08:17:56;91.00;;;24.33;;
8857;SDS011;4465;50.904;4.696;2024-03-07T08:20:23;87.88;;;23.60;;
8857;SDS011;4465;50.904;4.696;2024-03-07T08:22:53;89.88;;;27.42;;
8857;SDS011;4465;50.904;4.696;2024-03-07T08:25:21;101.45;;;27.25;;
8857;SDS011;4465;50.904;4.696;2024-03-07T08:27:50;88.55;;;26.77;;
8857;SDS011;4465;50.904;4.696;2024-03-07T08:30:22;89.82;;;26.25;;
8857;SDS011;4465;50.904;4.696;2024-03-07T08:32:49;102.20;;;28.52;;
8857;SDS011;4465;50.904;4.696;2024-03-07T08:35:19;98.32;;;27.65;;
8857;SDS011;4465;50.904;4.696;2024-03-07T08:37:48;78.20;;;24.80;;
8857;SDS011;4465;50.904;4.696;2024-03-07T08:40:24;84.53;;;25.17;;
8857;SDS011;4465;50.904;4.696;2024-03-07T08:42:58;84.40;;;25.33;;
8857;SDS011;4465;50.904;4.696;2024-03-07T08:45:25;92.43;;;27.58;;
8857;SDS011;4465;50.904;4.696;2024-03-07T08:47:55;84.70;;;26.02;;
8857;SDS011;4465;50.904;4.696;2024-03-07T08:50:24;100.50;;;29.23;;
8857;SDS011;4465;50.904;4.696;2024-03-07T08:52:51;84.57;;;26.00;;
8857;SDS011;4465;50.904;4.696;2024-03-07T08:55:23;83.85;;;26.83;;
8857;SDS011;4465;50.904;4.696;2024-03-07T08:57:50;79.00;;;26.45;;
8857;SDS011;4465;50.904;4.696;2024-03-07T09:00:17;90.28;;;28.52;;
8857;SDS011;4465;50.904;4.696;2024-03-07T09:02:59;89.75;;;27.33;;
8857;SDS011;4465;50.904;4.696;2024-03-07T09:05:28;87.10;;;26.88;;
8857;SDS011;4465;50.904;4.696;2024-03-07T09:07:55;86.55;;;27.63;;
8857;SDS011;4465;50.904;4.696;2024-03-07T09:10:21;81.53;;;25.83;;
8857;SDS011;4465;50.904;4.696;2024-03-07T09:12:49;87.45;;;27.80;;
8857;SDS011;4465;50.904;4.696;2024-03-07T09:15:17;88.85;;;26.13;;
8857;SDS011;4465;50.904;4.696;2024-03-07T09:17:46;82.90;;;26.77;;
8857;SDS011;4465;50.904;4.696;2024-03-07T09:20:13;83.45;;;26.67;;
8857;SDS011;4465;50.904;4.696;2024-03-07T09:22:42;83.90;;;27.25;;
8857;SDS011;4465;50.904;4.696;2024-03-07T09:25:11;84.75;;;27.33;;
8857;SDS011;4465;50.904;4.696;2024-03-07T09:27:43;84.63;;;27.13;;
8857;SDS011;4465;50.904;4.696;2024-03-07T09:30:14;84.50;;;26.38;;
8857;SDS011;4465;50.904;4.696;2024-03-07T09:32:44;80.57;;;26.17;;
8857;SDS011;4465;50.904;4.696;2024-03-07T09:35:10;77.32;;;25.58;;
8857;SDS011;4465;50.904;4.696;2024-03-07T09:37:39;76.72;;;26.83;;
8857;SDS011;4465;50.904;4.696;2024-03-07T09:40:07;81.38;;;26.42;;
8857;SDS011;4465;50.904;4.696;2024-03-07T09:42:44;76.45;;;26.13;;
8857;SDS011;4465;50.904;4.696;2024-03-07T09:45:15;69.07;;;25.15;;
8857;SDS011;4465;50.904;4.696;2024-03-07T09:47:44;71.82;;;24.75;;
8857;SDS011;4465;50.904;4.696;2024-03-07T09:50:15;68.03;;;24.45;;
8857;SDS011;4465;50.904;4.696;2024-03-07T09:52:44;63.70;;;24.33;;
8857;SDS011;4465;50.904;4.696;2024-03-07T09:55:15;73.75;;;25.35;;
8857;SDS011;4465;50.904;4.696;2024-03-07T09:57:42;63.38;;;24.15;;
8857;SDS011;4465;50.904;4.696;2024-03-07T10:00:14;74.65;;;24.35;;
8857;SDS011;4465;50.904;4.696;2024-03-07T10:02:56;64.80;;;23.15;;
8857;SDS011;4465;50.904;4.696;2024-03-07T10:05:31;67.03;;;22.38;;
8857;SDS011;4465;50.904;4.696;2024-03-07T10:07:58;66.57;;;23.33;;
8857;SDS011;4465;50.904;4.696;2024-03-07T10:10:24;65.78;;;23.73;;
8857;SDS011;4465;50.904;4.696;2024-03-07T10:12:51;60.00;;;22.77;;
8857;SDS011;4465;50.904;4.696;2024-03-07T10:15:26;61.28;;;22.45;;
8857;SDS011;4465;50.904;4.696;2024-03-07T10:17:56;67.15;;;23.02;;
8857;SDS011;4465;50.904;4.696;2024-03-07T10:20:22;53.65;;;21.60;;
8857;SDS011;4465;50.904;4.696;2024-03-07T10:22:50;57.15;;;20.42;;
8857;SDS011;4465;50.904;4.696;2024-03-07T10:25:17;57.60;;;21.92;;
8857;SDS011;4465;50.904;4.696;2024-03-07T10:27:45;55.10;;;21.13;;
8857;SDS011;4465;50.904;4.696;2024-03-07T10:30:14;57.30;;;20.75;;
8857;SDS011;4465;50.904;4.696;2024-03-07T10:32:55;54.67;;;21.58;;
8857;SDS011;4465;50.904;4.696;2024-03-07T10:35:23;61.50;;;20.75;;
8857;SDS011;4465;50.904;4.696;2024-03-07T10:37:52;54.15;;;20.48;;
8857;SDS011;4465;50.904;4.696;2024-03-07T10:40:21;53.22;;;20.77;;
8857;SDS011;4465;50.904;4.696;2024-03-07T10:42:48;56.92;;;19.95;;
8857;SDS011;4465;50.904;4.696;2024-03-07T10:45:19;54.97;;;21.23;;
8857;SDS011;4465;50.904;4.696;2024-03-07T10:47:56;55.03;;;21.73;;
8857;SDS011;4465;50.904;4.696;2024-03-07T10:50:38;49.70;;;20.48;;
8857;SDS011;4465;50.904;4.696;2024-03-07T10:53:35;49.63;;;19.08;;
8857;SDS011;4465;50.904;4.696;2024-03-07T10:59:17;46.13;;;19.13;;
8857;SDS011;4465;50.904;4.696;2024-03-07T11:04:30;42.00;;;18.15;;
8857;SDS011;4465;50.904;4.696;2024-03-07T11:06:57;48.92;;;19.45;;
8857;SDS011;4465;50.904;4.696;2024-03-07T11:09:24;51.47;;;19.55;;
8857;SDS011;4465;50.904;4.696;2024-03-07T11:11:57;52.45;;;19.23;;
8857;SDS011;4465;50.904;4.696;2024-03-07T11:14:29;45.85;;;18.70;;
8857;SDS011;4465;50.904;4.696;2024-03-07T11:16:56;50.03;;;18.38;;
8857;SDS011;4465;50.904;4.696;2024-03-07T11:19:27;43.65;;;17.95;;
8857;SDS011;4465;50.904;4.696;2024-03-07T11:21:55;38.42;;;16.55;;
8857;SDS011;4465;50.904;4.696;2024-03-07T11:24:22;44.70;;;18.93;;
8857;SDS011;4465;50.904;4.696;2024-03-07T11:26:56;47.80;;;20.13;;
8857;SDS011;4465;50.904;4.696;2024-03-07T11:32:12;43.20;;;17.65;;
8857;SDS011;4465;50.904;4.696;2024-03-07T11:34:39;46.83;;;19.27;;
8857;SDS011;4465;50.904;4.696;2024-03-07T11:37:16;44.33;;;18.10;;
8857;SDS011;4465;50.904;4.696;2024-03-07T11:39:47;44.22;;;18.77;;
8857;SDS011;4465;50.904;4.696;2024-03-07T11:42:28;40.95;;;18.38;;
8857;SDS011;4465;50.904;4.696;2024-03-07T11:44:59;49.53;;;20.08;;
8857;SDS011;4465;50.904;4.696;2024-03-07T11:47:35;40.70;;;18.08;;
8857;SDS011;4465;50.904;4.696;2024-03-07T11:50:06;45.92;;;19.33;;
8857;SDS011;4465;50.904;4.696;2024-03-07T11:52:40;44.97;;;18.95;;
8857;SDS011;4465;50.904;4.696;2024-03-07T11:55:09;40.22;;;18.50;;
8857;SDS011;4465;50.904;4.696;2024-03-07T11:57:36;42.08;;;19.50;;
8857;SDS011;4465;50.904;4.696;2024-03-07T12:00:09;47.47;;;18.55;;
8857;SDS011;4465;50.904;4.696;2024-03-07T12:02:39;47.83;;;19.20;;
8857;SDS011;4465;50.904;4.696;2024-03-07T12:05:05;46.33;;;19.70;;
8857;SDS011;4465;50.904;4.696;2024-03-07T12:07:34;45.80;;;19.77;;
8857;SDS011;4465;50.904;4.696;2024-03-07T12:10:03;50.53;;;19.17;;
8857;SDS011;4465;50.904;4.696;2024-03-07T12:12:32;46.85;;;19.83;;
8857;SDS011;4465;50.904;4.696;2024-03-07T12:15:00;44.88;;;20.02;;
8857;SDS011;4465;50.904;4.696;2024-03-07T12:17:34;47.22;;;19.33;;
8857;SDS011;4465;50.904;4.696;2024-03-07T12:20:00;42.63;;;18.30;;
8857;SDS011;4465;50.904;4.696;2024-03-07T12:22:47;42.97;;;19.60;;
8857;SDS011;4465;50.904;4.696;2024-03-07T12:25:18;42.78;;;19.50;;
8857;SDS011;4465;50.904;4.696;2024-03-07T12:27:59;41.30;;;18.52;;
8857;SDS011;4465;50.904;4.696;2024-03-07T12:30:29;45.42;;;19.75;;
8857;SDS011;4465;50.904;4.696;2024-03-07T12:32:58;40.45;;;18.02;;
8857;SDS011;4465;50.904;4.696;2024-03-07T12:35:29;45.20;;;19.77;;
8857;SDS011;4465;50.904;4.696;2024-03-07T12:37:57;47.03;;;20.45;;
8857;SDS011;4465;50.904;4.696;2024-03-07T12:40:28;47.13;;;21.00;;
8857;SDS011;4465;50.904;4.696;2024-03-07T12:42:59;42.13;;;18.73;;
8857;SDS011;4465;50.904;4.696;2024-03-07T12:45:28;39.05;;;18.88;;
8857;SDS011;4465;50.904;4.696;2024-03-07T12:47:54;42.72;;;18.30;;
8857;SDS011;4465;50.904;4.696;2024-03-07T12:50:21;35.72;;;16.80;;
8857;SDS011;4465;50.904;4.696;2024-03-07T12:52:52;37.60;;;17.55;;
8857;SDS011;4465;50.904;4.696;2024-03-07T12:55:20;38.83;;;17.90;;
8857;SDS011;4465;50.904;4.696;2024-03-07T12:57:49;41.97;;;17.73;;
8857;SDS011;4465;50.904;4.696;2024-03-07T13:00:17;45.03;;;19.08;;
8857;SDS011;4465;50.904;4.696;2024-03-07T13:02:45;41.33;;;18.27;;
8857;SDS011;4465;50.904;4.696;2024-03-07T13:05:12;40.55;;;17.23;;
8857;SDS011;4465;50.904;4.696;2024-03-07T13:07:48;36.25;;;17.15;;
8857;SDS011;4465;50.904;4.696;2024-03-07T13:10:14;38.22;;;17.17;;
8857;SDS011;4465;50.904;4.696;2024-03-07T13:12:42;36.33;;;16.63;;
8857;SDS011;4465;50.904;4.696;2024-03-07T13:15:11;39.17;;;16.60;;
8857;SDS011;4465;50.904;4.696;2024-03-07T13:17:37;41.00;;;16.65;;
8857;SDS011;4465;50.904;4.696;2024-03-07T13:20:08;37.25;;;16.40;;
8857;SDS011;4465;50.904;4.696;2024-03-07T13:22:46;34.70;;;16.13;;
8857;SDS011;4465;50.904;4.696;2024-03-07T13:25:13;34.60;;;16.13;;
8857;SDS011;4465;50.904;4.696;2024-03-07T13:30:20;33.03;;;15.68;;
8857;SDS011;4465;50.904;4.696;2024-03-07T13:32:56;37.22;;;16.35;;
8857;SDS011;4465;50.904;4.696;2024-03-07T13:35:23;28.55;;;13.70;;
8857;SDS011;4465;50.904;4.696;2024-03-07T13:37:54;34.03;;;14.85;;
8857;SDS011;4465;50.904;4.696;2024-03-07T13:40:23;33.47;;;15.38;;
8857;SDS011;4465;50.904;4.696;2024-03-07T13:42:56;33.53;;;14.70;;
8857;SDS011;4465;50.904;4.696;2024-03-07T13:45:25;31.08;;;15.60;;
8857;SDS011;4465;50.904;4.696;2024-03-07T13:47:55;31.58;;;16.45;;
8857;SDS011;4465;50.904;4.696;2024-03-07T13:52:54;37.67;;;17.63;;
8857;SDS011;4465;50.904;4.696;2024-03-07T14:16:29;29.00;;;14.18;;
8857;SDS011;4465;50.904;4.696;2024-03-07T14:22:48;34.10;;;14.73;;
8857;SDS011;4465;50.904;4.696;2024-03-07T14:25:43;28.42;;;14.18;;
8857;SDS011;4465;50.904;4.696;2024-03-07T14:31:13;31.27;;;15.38;;
8857;SDS011;4465;50.904;4.696;2024-03-07T14:36:35;31.20;;;14.57;;
8857;SDS011;4465;50.904;4.696;2024-03-07T14:39:18;32.53;;;14.73;;
8857;SDS011;4465;50.904;4.696;2024-03-07T14:42:04;30.30;;;14.98;;
8857;SDS011;4465;50.904;4.696;2024-03-07T14:44:37;31.27;;;14.73;;
8857;SDS011;4465;50.904;4.696;2024-03-07T14:47:07;29.08;;;14.90;;
8857;SDS011;4465;50.904;4.696;2024-03-07T14:49:37;30.13;;;14.20;;
8857;SDS011;4465;50.904;4.696;2024-03-07T14:52:03;32.92;;;14.88;;
8857;SDS011;4465;50.904;4.696;2024-03-07T14:54:38;27.02;;;12.77;;
8857;SDS011;4465;50.904;4.696;2024-03-07T14:57:07;30.02;;;13.85;;
8857;SDS011;4465;50.904;4.696;2024-03-07T14:59:35;33.95;;;14.77;;
8857;SDS011;4465;50.904;4.696;2024-03-07T15:02:02;30.67;;;14.40;;
8857;SDS011;4465;50.904;4.696;2024-03-07T15:04:31;30.92;;;14.60;;
8857;SDS011;4465;50.904;4.696;2024-03-07T15:09:28;33.88;;;13.80;;
8857;SDS011;4465;50.904;4.696;2024-03-07T15:11:57;33.00;;;14.38;;
8857;SDS011;4465;50.904;4.696;2024-03-07T15:14:23;34.13;;;13.65;;
8857;SDS011;4465;50.904;4.696;2024-03-07T15:16:52;31.40;;;13.30;;
8857;SDS011;4465;50.904;4.696;2024-03-07T15:19:18;32.15;;;13.88;;
8857;SDS011;4465;50.904;4.696;2024-03-07T15:21:44;32.90;;;13.10;;
8857;SDS011;4465;50.904;4.696;2024-03-07T15:24:11;33.67;;;12.98;;
8857;SDS011;4465;50.904;4.696;2024-03-07T15:26:39;30.15;;;13.00;;
8857;SDS011;4465;50.904;4.696;2024-03-07T15:29:07;27.75;;;11.43;;
8857;SDS011;4465;50.904;4.696;2024-03-07T15:31:33;26.23;;;11.00;;
8857;SDS011;4465;50.904;4.696;2024-03-07T15:33:59;31.65;;;12.73;;
8857;SDS011;4465;50.904;4.696;2024-03-07T15:36:31;29.88;;;12.20;;
8857;SDS011;4465;50.904;4.696;2024-03-07T15:38:57;27.58;;;11.45;;
8857;SDS011;4465;50.904;4.696;2024-03-07T15:41:23;30.75;;;12.18;;